createdAt,value
2023-03-27T00:01:32.474Z,8.70
2023-03-27T00:06:37.193Z,7.82
2023-03-27T00:11:39.944Z,7.30
2023-03-27T00:16:42.753Z,8.02
2023-03-27T00:21:47.746Z,6.10
2023-03-27T00:26:50.500Z,7.20
2023-03-27T00:31:53.255Z,7.63
2023-03-27T00:36:57.346Z,8.02
2023-03-27T00:42:00.052Z,6.07
2023-03-27T00:47:03.853Z,5.72
2023-03-27T00:52:08.581Z,5.13
2023-03-27T00:57:16.252Z,6.72
2023-03-27T01:02:19.546Z,6.28
2023-03-27T01:07:25.094Z,3.63
2023-03-27T01:12:36.651Z,5.22
2023-03-27T01:17:48.640Z,4.40
2023-03-27T01:23:17.361Z,4.60
2023-03-27T01:28:44.689Z,3.78
2023-03-27T01:34:10.246Z,5.07
2023-03-27T01:39:29.956Z,9.30
2023-03-27T01:44:45.032Z,6.80
2023-03-27T01:49:55.914Z,3.85
2023-03-27T01:55:03.538Z,8.20
2023-03-27T02:00:19.409Z,4.88
2023-03-27T02:05:25.699Z,4.30
2023-03-27T02:10:32.335Z,3.85
2023-03-27T02:15:42.237Z,4.53
2023-03-27T02:20:45.040Z,3.67
2023-03-27T02:25:49.221Z,4.65
2023-03-27T02:31:06.268Z,4.40
2023-03-27T02:36:29.553Z,2.83
2023-03-27T02:41:37.805Z,4.78
2023-03-27T02:47:10.960Z,3.80
2023-03-27T02:52:20.057Z,3.40
2023-03-27T02:57:27.815Z,4.53
2023-03-27T03:02:50.131Z,6.10
2023-03-27T03:07:54.225Z,5.07
2023-03-27T03:13:01.730Z,4.00
2023-03-27T03:18:04.614Z,4.07
2023-03-27T03:23:07.658Z,4.30
2023-03-27T03:28:12.980Z,5.13
2023-03-27T03:33:15.992Z,2.35
2023-03-27T03:38:25.025Z,4.60
2023-03-27T03:43:31.061Z,4.88
2023-03-27T03:48:35.155Z,4.20
2023-03-27T03:53:37.924Z,3.15
2023-03-27T03:58:42.682Z,5.78
2023-03-27T04:03:45.613Z,5.70
2023-03-27T04:08:48.833Z,4.57
2023-03-27T04:14:15.649Z,4.05
2023-03-27T04:19:20.526Z,4.03
2023-03-27T04:24:33.144Z,4.82
2023-03-27T04:29:37.535Z,4.10
2023-03-27T04:34:40.769Z,4.05
2023-03-27T04:40:18.050Z,2.85
2023-03-27T04:45:23.317Z,3.63
2023-03-27T04:50:27.114Z,3.97
2023-03-27T04:55:30.400Z,4.63
2023-03-27T05:00:35.061Z,2.97
2023-03-27T05:06:15.990Z,3.35
2023-03-27T05:11:19.114Z,3.67
2023-03-27T05:16:24.310Z,3.67
2023-03-27T05:21:30.814Z,2.47
2023-03-27T05:26:33.884Z,3.75
2023-03-27T05:31:38.302Z,3.67
2023-03-27T05:37:06.209Z,6.93
2023-03-27T05:42:18.398Z,4.03
2023-03-27T05:47:22.810Z,3.40
2023-03-27T05:52:29.224Z,3.92
2023-03-27T05:57:32.946Z,3.83
2023-03-27T06:02:38.860Z,6.43
2023-03-27T06:07:43.256Z,5.57
2023-03-27T06:12:48.933Z,2.97
2023-03-27T06:18:03.495Z,2.30
2023-03-27T06:23:11.882Z,3.67
2023-03-27T06:28:15.224Z,4.32
2023-03-27T06:33:22.380Z,3.42
2023-03-27T06:38:26.157Z,3.22
2023-03-27T06:43:29.053Z,2.17
2023-03-27T06:48:44.155Z,3.63
2023-03-27T06:53:49.338Z,3.40
2023-03-27T06:58:53.889Z,5.10
2023-03-27T07:04:03.507Z,2.22
2023-03-27T07:09:23.220Z,2.42
2023-03-27T07:14:35.924Z,2.38
2023-03-27T07:19:40.205Z,3.55
2023-03-27T07:24:57.211Z,5.85
2023-03-27T07:30:03.590Z,2.53
2023-03-27T07:35:10.315Z,2.85
2023-03-27T07:40:14.306Z,2.75
2023-03-27T07:45:23.874Z,3.75
2023-03-27T07:50:33.369Z,3.25
2023-03-27T07:55:37.850Z,2.80
2023-03-27T08:00:43.315Z,6.20
2023-03-27T08:05:58.764Z,3.75
2023-03-27T08:11:04.962Z,3.95
2023-03-27T08:16:14.369Z,5.25
2023-03-27T08:21:20.134Z,3.90
2023-03-27T08:26:26.472Z,4.32
2023-03-27T08:31:37.468Z,2.20
2023-03-27T08:36:42.843Z,4.80
2023-03-27T08:41:50.606Z,2.38
2023-03-27T08:47:04.767Z,4.10
2023-03-27T08:52:15.756Z,2.30
2023-03-27T08:57:22.497Z,2.28
2023-03-27T09:02:34.957Z,2.90
2023-03-27T09:07:45.956Z,3.28
2023-03-27T09:13:05.200Z,6.10
2023-03-27T09:18:15.740Z,2.53
2023-03-27T09:23:22.725Z,4.78
2023-03-27T09:28:50.768Z,2.78
2023-03-27T09:33:59.865Z,2.90
2023-03-27T09:39:07.957Z,3.55
2023-03-27T09:44:31.201Z,2.20
2023-03-27T09:49:44.625Z,4.03
2023-03-27T09:54:56.216Z,3.60
2023-03-27T10:00:15.556Z,2.85
2023-03-27T10:05:22.122Z,1.73
2023-03-27T10:10:33.034Z,2.42
2023-03-27T10:15:41.125Z,3.08
2023-03-27T10:20:51.399Z,2.80
2023-03-27T10:26:00.646Z,2.28
2023-03-27T10:31:28.138Z,2.08
2023-03-27T10:36:37.833Z,3.28
2023-03-27T10:41:48.801Z,3.55
2023-03-27T10:46:53.550Z,3.80
2023-03-27T10:52:06.745Z,3.13
2023-03-27T10:57:30.494Z,1.67
2023-03-27T11:02:37.430Z,1.65
2023-03-27T11:07:43.776Z,3.17
2023-03-27T11:12:54.443Z,4.22
2023-03-27T11:18:01.937Z,1.63
2023-03-27T11:23:30.069Z,2.33
2023-03-27T11:29:03.014Z,4.13
2023-03-27T11:34:29.093Z,3.08
2023-03-27T11:39:43.537Z,1.77
2023-03-27T11:44:48.770Z,2.20
2023-03-27T11:50:22.184Z,2.35
2023-03-27T11:55:32.052Z,2.10
2023-03-27T12:00:39.437Z,3.72
2023-03-27T12:05:57.288Z,2.22
2023-03-27T12:11:07.127Z,1.77
2023-03-27T12:16:36.580Z,1.90
2023-03-27T12:21:51.602Z,3.85
2023-03-27T12:27:15.810Z,2.42
2023-03-27T12:32:49.933Z,2.22
2023-03-27T12:37:58.692Z,1.95
2023-03-27T12:43:27.325Z,2.63
2023-03-27T12:48:57.710Z,1.95
2023-03-27T12:54:13.879Z,2.55
2023-03-27T12:59:23.535Z,2.35
2023-03-27T13:04:47.710Z,2.88
2023-03-27T13:09:59.586Z,4.35
2023-03-27T13:15:32.989Z,7.00
2023-03-27T13:20:46.988Z,9.25
2023-03-27T13:26:14.306Z,9.50
2023-03-27T13:32:00.129Z,13.43
2023-03-27T13:37:42.888Z,13.40
2023-03-27T13:42:47.522Z,14.60
2023-03-27T13:48:16.145Z,16.40
2023-03-27T13:54:00.258Z,12.57
2023-03-27T13:59:28.183Z,15.05
2023-03-27T14:04:43.642Z,13.40
2023-03-27T14:09:55.828Z,15.48
2023-03-27T14:15:32.233Z,13.40
2023-03-27T14:21:09.110Z,13.15
2023-03-27T14:26:24.511Z,13.02
2023-03-27T14:31:35.383Z,12.27
2023-03-27T14:36:56.063Z,13.40
2023-03-27T14:42:17.683Z,11.55
2023-03-27T14:47:24.198Z,10.15
2023-03-27T14:52:32.179Z,11.40
2023-03-27T14:57:57.469Z,10.38
2023-03-27T15:03:08.500Z,8.40
2023-03-27T15:08:12.783Z,8.90
2023-03-27T15:13:49.710Z,9.52
2023-03-27T15:19:09.739Z,8.05
2023-03-27T15:24:16.676Z,7.60
2023-03-27T15:29:32.219Z,8.13
2023-03-27T15:34:37.433Z,7.78
2023-03-27T15:40:32.933Z,7.95
2023-03-27T15:45:39.844Z,6.78
2023-03-27T15:50:54.911Z,5.45
2023-03-27T15:55:58.600Z,7.57
2023-03-27T16:01:18.321Z,6.25
2023-03-27T16:06:33.559Z,6.43
2023-03-27T16:11:43.626Z,7.65
2023-03-27T16:17:11.207Z,4.80
2023-03-27T16:22:14.128Z,4.70
2023-03-27T16:27:17.451Z,4.82
2023-03-27T16:32:23.253Z,7.32
2023-03-27T16:37:27.184Z,6.03
2023-03-27T16:42:30.131Z,4.78
2023-03-27T16:47:34.254Z,3.97
2023-03-27T16:52:37.065Z,4.82
2023-03-27T16:57:39.928Z,4.70
2023-03-27T17:02:46.464Z,4.32
2023-03-27T17:07:49.359Z,4.47
2023-03-27T17:12:52.052Z,3.35
2023-03-27T17:17:56.256Z,5.15
2023-03-27T17:22:59.004Z,4.90
2023-03-27T17:28:01.776Z,3.92
2023-03-27T18:18:00.950Z,2.70
2023-03-27T18:23:03.777Z,3.15
2023-03-27T18:28:06.742Z,3.80
2023-03-27T18:33:11.498Z,4.40
2023-03-27T18:38:15.136Z,3.55
2023-03-27T18:43:18.030Z,2.85
2023-03-27T18:48:22.142Z,3.85
2023-03-27T18:53:25.263Z,3.35
2023-03-27T18:58:29.137Z,4.82
2023-03-27T19:03:34.912Z,2.65
2023-03-27T19:08:38.502Z,2.30
2023-03-27T19:13:41.171Z,2.65
2023-03-27T19:19:01.843Z,3.80
2023-03-27T19:24:33.849Z,3.20
2023-03-27T19:29:37.103Z,2.60
2023-03-27T19:34:43.153Z,4.18
2023-03-27T19:39:45.943Z,3.20
2023-03-27T19:44:48.556Z,2.33
2023-03-27T19:49:53.577Z,3.42
2023-03-27T19:55:23.925Z,3.15
2023-03-27T20:00:26.535Z,1.60
2023-03-27T20:05:30.807Z,2.42
2023-03-27T20:10:35.930Z,2.00
2023-03-27T20:15:40.618Z,2.05
2023-03-27T20:20:46.134Z,2.33
2023-03-27T20:25:51.565Z,2.33
2023-03-27T20:30:54.426Z,1.67
2023-03-27T20:35:58.656Z,2.55
2023-03-27T20:41:03.941Z,1.67
2023-03-27T20:46:10.630Z,1.92
2023-03-27T20:51:17.613Z,3.33
2023-03-27T20:56:20.644Z,2.63
2023-03-27T21:01:27.584Z,2.08
2023-03-27T21:06:31.872Z,2.92
2023-03-27T21:11:34.631Z,1.70
2023-03-27T21:16:38.357Z,1.90
2023-03-27T21:21:42.524Z,2.10
2023-03-27T21:26:45.123Z,3.30
2023-03-27T21:31:47.836Z,1.88
2023-03-27T21:36:51.934Z,1.50
2023-03-27T21:41:54.619Z,2.38
2023-03-27T21:46:57.243Z,2.92
2023-03-27T21:52:02.318Z,2.13
2023-03-27T21:57:05.592Z,2.60
2023-03-27T22:02:08.576Z,3.72
2023-03-27T22:07:12.520Z,1.48
2023-03-27T22:12:16.492Z,2.88
2023-03-27T22:17:19.122Z,2.67
2023-03-27T22:22:23.093Z,3.38
2023-03-27T22:27:25.879Z,2.13
2023-03-27T22:32:28.523Z,2.50
2023-03-27T22:37:32.559Z,2.50
2023-03-27T22:42:36.710Z,3.10
2023-03-27T22:47:39.460Z,2.10
2023-03-27T22:52:43.550Z,2.28
2023-03-27T22:57:46.146Z,1.83
2023-03-27T23:02:48.867Z,1.92
2023-03-27T23:07:52.958Z,2.10
2023-03-27T23:12:55.713Z,2.40
2023-03-27T23:17:58.373Z,1.65
2023-03-27T23:23:02.488Z,3.08
2023-03-27T23:28:05.469Z,2.70
2023-03-27T23:33:08.143Z,1.88
2023-03-27T23:38:12.260Z,1.65
2023-03-27T23:43:14.858Z,2.28
2023-03-27T23:48:17.771Z,2.60
2023-03-27T23:53:21.887Z,2.95
2023-03-27T23:58:25.236Z,3.50
